Terminal Aerodrome Forecast
Issued by NWS Louisville, KY

Home | Current Version | Previous Version | Text Only | Print | Product List | Glossary On
Versions: 1 2 3 4 5 6 7 8 9 10 11 12 13 14 15 16 17 18 19 20
000
FTUS43 KLMK 271412 AAA
TAFLEX
TAF AMD
KLEX 271412Z 2714/2812 22007KT P6SM BKN015
     FM271700 22008KT P6SM BKN025
     FM271900 23008KT P6SM VCTS SCT030CB BKN050
     FM280000 VRB04KT P6SM SCT040 BKN250 PROB30 2806/2810 VRB20G35KT
      5SM -TSRA BR BKN025CB=

USA.gov is the U.S. government's official web portal to all federal, state and local government web resources and services.